createdAt,value
2023-04-30T00:01:22.172Z,6.65
2023-04-30T00:03:48.684Z,6.63
2023-04-30T00:06:15.884Z,6.59
2023-04-30T00:08:42.418Z,6.58
2023-04-30T00:11:08.808Z,6.50
2023-04-30T00:13:35.342Z,6.48
2023-04-30T00:16:01.861Z,6.48
2023-04-30T00:18:28.479Z,6.37
2023-04-30T00:20:54.933Z,6.32
2023-04-30T00:23:21.535Z,6.30
2023-04-30T00:25:47.942Z,6.22
2023-04-30T00:28:14.397Z,6.25
2023-04-30T00:30:40.893Z,6.14
2023-04-30T00:33:07.481Z,6.08
2023-04-30T00:35:34.207Z,6.06
2023-04-30T00:38:00.683Z,6.11
2023-04-30T00:40:27.093Z,5.99
2023-04-30T00:42:55.763Z,5.95
2023-04-30T00:45:23.461Z,5.90
2023-04-30T00:47:50.252Z,5.80
2023-04-30T00:50:16.875Z,5.74
2023-04-30T00:52:43.626Z,5.72
2023-04-30T00:55:13.206Z,5.72
2023-04-30T00:57:41.428Z,5.67
2023-04-30T01:00:11.260Z,5.70
2023-04-30T01:02:38.329Z,5.63
2023-04-30T01:05:05.061Z,5.60
2023-04-30T01:07:31.940Z,5.56
2023-04-30T01:09:58.483Z,5.60
2023-04-30T01:12:36.209Z,5.52
2023-04-30T01:15:02.786Z,5.51
2023-04-30T01:17:36.736Z,5.43
2023-04-30T01:20:04.277Z,5.40
2023-04-30T01:22:36.162Z,5.41
2023-04-30T01:25:21.357Z,5.43
2023-04-30T01:28:05.594Z,5.49
2023-04-30T01:30:32.651Z,5.46
2023-04-30T01:32:59.317Z,5.35
2023-04-30T01:35:40.126Z,5.27
2023-04-30T01:38:25.504Z,5.29
2023-04-30T01:41:04.184Z,5.27
2023-04-30T01:43:38.618Z,5.13
2023-04-30T01:46:12.720Z,5.25
2023-04-30T01:48:41.881Z,5.18
2023-04-30T01:51:24.997Z,5.09
2023-04-30T01:53:55.775Z,5.06
2023-04-30T01:56:27.374Z,5.03
2023-04-30T01:58:53.904Z,5.05
2023-04-30T02:01:27.686Z,5.05
2023-04-30T02:03:54.993Z,5.08
2023-04-30T02:06:21.759Z,5.08
2023-04-30T02:08:48.260Z,5.09
2023-04-30T02:11:14.772Z,5.06
2023-04-30T02:13:41.192Z,4.99
2023-04-30T02:16:07.761Z,4.99
2023-04-30T02:18:34.440Z,4.98
2023-04-30T02:21:00.952Z,4.90
2023-04-30T02:23:27.462Z,4.87
2023-04-30T02:25:54.071Z,4.77
2023-04-30T02:28:20.525Z,4.78
2023-04-30T02:30:46.958Z,4.69
2023-04-30T02:33:13.476Z,4.64
2023-04-30T02:35:41.244Z,4.56
2023-04-30T02:38:07.835Z,4.49
2023-04-30T02:40:34.321Z,4.52
2023-04-30T02:43:02.554Z,4.48
2023-04-30T02:45:28.952Z,4.45
2023-04-30T02:47:55.418Z,4.45
2023-04-30T02:50:21.933Z,4.47
2023-04-30T02:52:48.478Z,4.42
2023-04-30T02:55:15.076Z,4.52
2023-04-30T02:57:41.525Z,4.46
2023-04-30T03:00:08.378Z,4.38
2023-04-30T03:02:34.873Z,4.39
2023-04-30T03:05:01.454Z,4.32
2023-04-30T03:07:28.160Z,4.36
2023-04-30T03:09:55.382Z,4.24
2023-04-30T03:12:21.969Z,4.15
2023-04-30T03:14:48.392Z,4.14
2023-04-30T03:17:14.820Z,4.09
2023-04-30T03:19:41.467Z,4.09
2023-04-30T03:22:08.135Z,4.18
2023-04-30T03:24:34.613Z,4.29
2023-04-30T03:27:02.141Z,4.17
2023-04-30T03:29:28.793Z,4.17
2023-04-30T03:31:55.724Z,4.18
2023-04-30T03:34:22.136Z,4.32
2023-04-30T03:36:48.510Z,4.23
2023-04-30T03:39:16.257Z,4.27
2023-04-30T03:41:42.892Z,4.21
2023-04-30T03:44:15.562Z,4.09
2023-04-30T03:46:43.344Z,4.23
2023-04-30T03:49:11.378Z,4.30
2023-04-30T03:51:39.818Z,4.27
2023-04-30T03:54:06.619Z,4.28
2023-04-30T03:56:33.700Z,4.26
2023-04-30T03:59:00.320Z,4.28
2023-04-30T04:01:26.811Z,4.33
2023-04-30T04:03:53.853Z,4.34
2023-04-30T04:06:20.521Z,4.38
2023-04-30T04:08:46.946Z,4.47
2023-04-30T04:11:13.470Z,4.41
2023-04-30T04:13:39.941Z,4.39
2023-04-30T04:16:08.698Z,4.04
2023-04-30T04:18:35.213Z,4.02
2023-04-30T04:21:01.822Z,4.10
2023-04-30T04:23:28.197Z,4.04
2023-04-30T04:25:54.913Z,4.15
2023-04-30T04:28:22.081Z,4.02
2023-04-30T04:30:49.424Z,3.99
2023-04-30T04:33:16.426Z,4.06
2023-04-30T04:35:42.966Z,3.97
2023-04-30T04:38:09.458Z,3.92
2023-04-30T04:40:36.072Z,3.91
2023-04-30T04:43:02.734Z,3.90
2023-04-30T04:45:29.196Z,3.95
2023-04-30T04:47:55.769Z,4.03
2023-04-30T04:50:22.823Z,3.91
2023-04-30T04:52:49.218Z,3.88
2023-04-30T04:55:15.751Z,3.91
2023-04-30T04:57:42.597Z,3.95
2023-04-30T05:00:10.328Z,4.03
2023-04-30T05:02:36.767Z,3.93
2023-04-30T05:05:03.413Z,3.99
2023-04-30T05:07:30.025Z,3.98
2023-04-30T05:09:56.897Z,4.04
2023-04-30T05:12:23.470Z,4.10
2023-04-30T05:14:51.330Z,4.15
2023-04-30T05:17:17.867Z,4.61
2023-04-30T05:19:44.253Z,4.64
2023-04-30T05:22:10.881Z,4.95
2023-04-30T05:24:37.357Z,5.06
2023-04-30T05:27:05.619Z,5.15
2023-04-30T05:29:32.023Z,5.05
2023-04-30T05:31:58.562Z,5.25
2023-04-30T05:34:26.008Z,5.50
2023-04-30T05:36:52.422Z,5.41
2023-04-30T05:39:18.845Z,5.58
2023-04-30T05:41:45.290Z,5.82
2023-04-30T05:44:11.700Z,5.70
2023-04-30T05:46:38.257Z,5.76
2023-04-30T05:49:04.772Z,5.96
2023-04-30T05:51:31.298Z,6.03
2023-04-30T05:53:57.773Z,6.35
2023-04-30T05:56:25.125Z,7.32
2023-04-30T05:58:52.656Z,8.30
2023-04-30T06:01:19.984Z,8.65
2023-04-30T06:03:46.635Z,8.21
2023-04-30T06:06:13.207Z,9.90
2023-04-30T06:08:42.230Z,10.08
2023-04-30T06:11:08.820Z,10.80
2023-04-30T06:13:35.344Z,9.72
2023-04-30T06:16:01.820Z,10.45
2023-04-30T06:18:28.321Z,9.87
2023-04-30T06:20:54.708Z,10.76
2023-04-30T06:23:21.088Z,11.66
2023-04-30T06:25:47.512Z,11.94
2023-04-30T06:28:13.998Z,10.73
2023-04-30T06:30:41.413Z,10.53
2023-04-30T06:33:07.879Z,10.72
2023-04-30T06:35:34.393Z,12.17
2023-04-30T06:38:00.960Z,11.82
2023-04-30T06:40:27.448Z,12.88
2023-04-30T06:42:54.586Z,13.31
2023-04-30T06:45:20.997Z,11.56
2023-04-30T06:47:47.579Z,13.35
2023-04-30T06:50:15.770Z,12.88
2023-04-30T06:52:42.313Z,12.92
2023-04-30T06:55:09.489Z,11.91
2023-04-30T06:57:37.786Z,12.63
2023-04-30T07:00:07.284Z,12.34
2023-04-30T07:02:33.818Z,13.38
2023-04-30T07:05:00.349Z,12.26
2023-04-30T07:07:27.087Z,13.70
2023-04-30T07:09:53.878Z,12.97
2023-04-30T07:12:20.758Z,12.75
2023-04-30T07:14:47.142Z,12.50
2023-04-30T07:17:13.600Z,12.27
2023-04-30T07:19:42.278Z,12.25
2023-04-30T07:22:08.858Z,12.48
2023-04-30T07:24:35.255Z,13.25
2023-04-30T07:27:03.986Z,11.59
2023-04-30T07:29:30.772Z,11.96
2023-04-30T07:31:57.323Z,13.51
2023-04-30T07:34:24.479Z,12.97
2023-04-30T07:36:50.916Z,12.51
2023-04-30T07:39:17.913Z,13.05
2023-04-30T07:41:44.431Z,12.77
2023-04-30T07:44:12.159Z,13.19
2023-04-30T07:46:38.729Z,12.08
2023-04-30T07:49:05.248Z,12.17
2023-04-30T07:51:33.008Z,12.10
2023-04-30T07:54:00.289Z,11.76
2023-04-30T07:56:26.815Z,11.71
2023-04-30T07:58:53.264Z,12.91
2023-04-30T08:01:19.667Z,12.41
2023-04-30T08:03:46.986Z,13.39
2023-04-30T08:06:13.569Z,13.82
2023-04-30T08:08:40.101Z,14.27
2023-04-30T08:11:06.620Z,14.17
2023-04-30T08:13:33.366Z,13.90
2023-04-30T08:15:59.918Z,13.08
2023-04-30T08:18:26.536Z,13.98
2023-04-30T08:20:53.027Z,15.05
2023-04-30T08:23:19.661Z,13.63
2023-04-30T08:25:46.136Z,14.36
2023-04-30T08:28:12.655Z,14.96
2023-04-30T08:30:39.467Z,15.37
2023-04-30T08:33:06.001Z,15.30
2023-04-30T08:35:32.481Z,15.43
2023-04-30T08:37:59.255Z,15.14
2023-04-30T08:40:43.543Z,15.44
2023-04-30T08:43:14.452Z,16.41
2023-04-30T08:45:41.835Z,15.97
2023-04-30T08:48:11.120Z,16.66
2023-04-30T08:50:37.620Z,17.91
2023-04-30T08:53:05.509Z,17.46
2023-04-30T08:55:34.120Z,16.18
2023-04-30T08:58:00.611Z,17.11
2023-04-30T09:00:27.696Z,16.66
2023-04-30T09:02:54.414Z,17.86
2023-04-30T09:05:20.940Z,17.45
2023-04-30T09:10:18.223Z,17.60
2023-04-30T09:12:45.717Z,18.07
2023-04-30T09:15:12.494Z,17.49
2023-04-30T09:17:39.711Z,15.73
2023-04-30T09:20:13.369Z,16.29
2023-04-30T09:22:41.087Z,16.92
2023-04-30T09:25:08.001Z,15.80
2023-04-30T09:27:34.670Z,16.39
2023-04-30T09:30:01.461Z,16.57
2023-04-30T09:32:28.201Z,16.96
2023-04-30T09:34:55.412Z,18.27
2023-04-30T09:37:22.061Z,18.30
2023-04-30T09:39:52.531Z,18.57
2023-04-30T09:42:20.246Z,17.38
2023-04-30T09:44:47.036Z,17.56
2023-04-30T09:47:18.069Z,17.32
2023-04-30T09:49:47.673Z,16.91
2023-04-30T09:52:15.960Z,16.99
2023-04-30T09:54:43.687Z,16.09
2023-04-30T09:57:11.198Z,18.41
2023-04-30T09:59:39.682Z,18.35
2023-04-30T10:02:08.243Z,17.71
2023-04-30T10:04:35.008Z,18.43
2023-04-30T10:07:03.953Z,17.73
2023-04-30T10:09:36.664Z,19.00
2023-04-30T10:12:05.286Z,17.39
2023-04-30T10:14:34.476Z,17.75
2023-04-30T10:17:11.915Z,18.65
2023-04-30T10:19:41.684Z,17.66
2023-04-30T10:22:09.489Z,21.02
2023-04-30T10:24:36.806Z,19.05
2023-04-30T10:27:03.612Z,16.85
2023-04-30T10:29:30.024Z,18.17
2023-04-30T10:31:57.401Z,17.66
2023-04-30T10:34:42.793Z,17.22
2023-04-30T10:37:18.771Z,20.35
2023-04-30T10:39:45.695Z,18.61
2023-04-30T10:42:12.254Z,18.46
2023-04-30T10:44:39.364Z,17.95
2023-04-30T10:47:06.728Z,18.84
2023-04-30T10:49:33.883Z,19.47
2023-04-30T10:52:01.464Z,20.91
2023-04-30T10:54:29.137Z,19.17
2023-04-30T10:57:17.928Z,17.84
2023-04-30T10:59:51.379Z,18.94
2023-04-30T11:02:20.134Z,17.16
2023-04-30T11:05:15.132Z,20.81
2023-04-30T11:07:51.728Z,18.39
2023-04-30T11:10:22.778Z,18.30
2023-04-30T11:12:50.363Z,18.88
2023-04-30T11:15:26.773Z,17.77
2023-04-30T11:17:57.130Z,19.09
2023-04-30T11:20:25.615Z,21.76
2023-04-30T11:23:32.281Z,19.39
2023-04-30T11:26:07.174Z,19.40
2023-04-30T11:28:35.964Z,17.88
2023-04-30T11:31:02.737Z,17.86
2023-04-30T11:33:29.831Z,18.98
2023-04-30T11:35:57.055Z,18.19
2023-04-30T11:38:27.754Z,18.34
2023-04-30T11:40:57.287Z,19.30
2023-04-30T11:43:27.936Z,18.68
2023-04-30T11:46:03.742Z,18.54
2023-04-30T11:48:34.211Z,19.23
2023-04-30T11:51:03.017Z,22.23
2023-04-30T11:53:32.094Z,21.44
2023-04-30T11:56:02.724Z,20.26
2023-04-30T11:58:33.528Z,20.14
2023-04-30T12:01:00.442Z,17.88
2023-04-30T12:03:27.314Z,20.29
2023-04-30T12:05:54.547Z,20.58
2023-04-30T12:08:21.170Z,17.75
2023-04-30T12:10:47.694Z,18.05
2023-04-30T12:13:14.950Z,18.41
2023-04-30T12:15:41.727Z,20.07
2023-04-30T12:18:13.353Z,20.18
2023-04-30T12:20:42.056Z,19.60
2023-04-30T12:23:08.780Z,19.38
2023-04-30T12:25:43.156Z,18.91
2023-04-30T12:28:10.407Z,19.39
2023-04-30T12:30:37.722Z,18.98
2023-04-30T12:33:04.353Z,19.72
2023-04-30T12:35:31.666Z,18.85
2023-04-30T12:38:02.344Z,19.11
2023-04-30T12:40:28.735Z,20.01
2023-04-30T12:43:02.425Z,21.18
2023-04-30T12:45:47.696Z,20.47
2023-04-30T12:48:15.833Z,17.72
2023-04-30T12:50:48.136Z,17.11
2023-04-30T12:53:14.698Z,18.35
2023-04-30T12:55:42.252Z,18.78
2023-04-30T12:58:14.491Z,18.80
2023-04-30T13:00:45.027Z,20.14
2023-04-30T13:03:12.689Z,18.78
2023-04-30T13:05:43.353Z,17.69
2023-04-30T13:08:09.955Z,18.67
2023-04-30T13:10:36.467Z,18.22
2023-04-30T13:13:03.064Z,17.48
2023-04-30T13:15:29.554Z,17.36
2023-04-30T13:17:56.184Z,17.56
2023-04-30T13:20:22.870Z,15.94
2023-04-30T13:22:49.484Z,16.32
2023-04-30T13:25:16.006Z,15.79
2023-04-30T13:27:42.917Z,16.32
2023-04-30T13:30:11.219Z,16.99
2023-04-30T13:32:37.844Z,16.95
2023-04-30T13:35:04.461Z,16.03
2023-04-30T13:37:33.889Z,15.48
2023-04-30T13:40:01.533Z,16.06
2023-04-30T13:42:27.959Z,15.74
2023-04-30T13:44:55.209Z,15.92
2023-04-30T13:47:21.825Z,16.27
2023-04-30T13:49:48.293Z,16.19
2023-04-30T13:52:14.840Z,17.04
2023-04-30T13:54:41.600Z,16.23
2023-04-30T13:57:08.256Z,16.22
2023-04-30T13:59:34.740Z,15.29
2023-04-30T14:02:01.392Z,15.47
2023-04-30T14:04:27.814Z,15.07
2023-04-30T14:06:56.680Z,15.72
2023-04-30T14:09:23.392Z,15.09
2023-04-30T14:11:52.324Z,15.30
2023-04-30T14:14:19.120Z,16.05
2023-04-30T14:16:45.557Z,16.04
2023-04-30T14:19:12.030Z,15.52
2023-04-30T14:21:38.457Z,15.66
2023-04-30T14:24:05.067Z,15.69
2023-04-30T14:26:31.619Z,16.00
2023-04-30T14:28:58.208Z,15.72
2023-04-30T14:31:24.745Z,15.32
2023-04-30T14:33:51.273Z,14.85
2023-04-30T14:36:17.879Z,15.86
2023-04-30T14:38:44.397Z,15.79
2023-04-30T14:41:12.238Z,15.55
2023-04-30T14:43:38.662Z,15.72
2023-04-30T14:46:05.361Z,15.49
2023-04-30T14:48:32.791Z,15.59
2023-04-30T14:51:02.440Z,15.62
2023-04-30T14:53:29.516Z,15.72
2023-04-30T14:55:56.845Z,15.56
2023-04-30T14:58:23.428Z,15.49
2023-04-30T15:00:50.112Z,15.51
2023-04-30T15:03:16.826Z,15.66
2023-04-30T15:05:43.604Z,15.50
2023-04-30T15:08:10.676Z,15.49
2023-04-30T15:10:37.042Z,15.57
2023-04-30T15:13:04.127Z,15.57
2023-04-30T15:15:31.127Z,15.21
2023-04-30T15:17:58.266Z,15.03
2023-04-30T15:20:24.761Z,14.85
2023-04-30T15:22:51.355Z,15.39
2023-04-30T15:25:19.088Z,15.56
2023-04-30T15:27:45.593Z,14.85
2023-04-30T15:30:12.320Z,15.10
2023-04-30T15:32:39.170Z,15.18
2023-04-30T15:35:06.075Z,15.19
2023-04-30T15:37:34.513Z,14.80
2023-04-30T15:40:01.292Z,15.47
2023-04-30T15:42:27.789Z,15.60
2023-04-30T15:44:54.204Z,15.44
2023-04-30T15:47:23.206Z,15.40
2023-04-30T15:49:50.428Z,15.43
2023-04-30T15:52:16.875Z,15.05
2023-04-30T15:54:43.310Z,15.17
2023-04-30T15:57:20.856Z,15.10
2023-04-30T15:59:47.395Z,15.27
2023-04-30T16:02:13.862Z,15.36
2023-04-30T16:04:41.432Z,15.29
2023-04-30T16:07:08.102Z,15.30
2023-04-30T16:09:34.765Z,15.07
2023-04-30T16:12:01.303Z,15.24
2023-04-30T16:14:27.790Z,15.49
2023-04-30T16:16:54.348Z,15.19
2023-04-30T16:19:20.852Z,15.14
2023-04-30T16:21:47.436Z,15.23
2023-04-30T16:24:19.896Z,15.08
2023-04-30T16:26:46.406Z,15.16
2023-04-30T16:29:13.083Z,15.13
2023-04-30T16:31:39.866Z,15.24
2023-04-30T16:34:11.290Z,15.12
2023-04-30T16:36:38.224Z,15.15
2023-04-30T16:39:04.701Z,15.10
2023-04-30T16:41:31.282Z,15.13
2023-04-30T16:43:57.978Z,15.18
2023-04-30T16:46:24.483Z,15.07
2023-04-30T16:48:51.085Z,15.07
2023-04-30T16:51:18.511Z,15.13
2023-04-30T16:53:44.973Z,14.92
2023-04-30T16:56:11.352Z,15.06
2023-04-30T16:58:39.706Z,15.02
2023-04-30T17:01:06.223Z,14.82
2023-04-30T17:03:34.811Z,14.70
2023-04-30T17:06:01.489Z,14.79
2023-04-30T17:08:27.918Z,14.93
2023-04-30T17:10:54.305Z,14.85
2023-04-30T17:13:20.776Z,14.67
2023-04-30T17:15:47.275Z,14.68
2023-04-30T17:18:15.302Z,14.61
2023-04-30T17:20:41.947Z,14.55
2023-04-30T17:23:08.538Z,14.57
2023-04-30T17:25:35.209Z,14.44
2023-04-30T17:28:01.753Z,14.41
2023-04-30T17:30:30.275Z,14.33
2023-04-30T17:32:56.937Z,14.39
2023-04-30T17:35:23.617Z,14.43
2023-04-30T17:37:50.279Z,14.39
2023-04-30T17:40:16.914Z,14.27
2023-04-30T17:42:44.084Z,14.35
2023-04-30T17:45:10.784Z,14.16
2023-04-30T17:47:37.780Z,14.11
2023-04-30T17:50:08.330Z,14.05
2023-04-30T17:52:38.530Z,14.07
2023-04-30T17:55:11.647Z,14.02
2023-04-30T17:57:38.319Z,13.89
2023-04-30T18:00:07.159Z,13.87
2023-04-30T18:02:33.622Z,13.87
2023-04-30T18:05:00.189Z,13.81
2023-04-30T18:07:26.901Z,13.70
2023-04-30T18:09:53.618Z,13.69
2023-04-30T18:12:20.495Z,13.62
2023-04-30T18:14:46.906Z,13.54
2023-04-30T18:17:15.241Z,13.51
2023-04-30T18:19:44.647Z,13.48
2023-04-30T18:22:14.595Z,13.38
2023-04-30T18:24:44.246Z,13.32
2023-04-30T18:27:11.312Z,13.25
2023-04-30T18:29:37.954Z,13.18
2023-04-30T18:32:04.556Z,13.16
2023-04-30T18:34:31.276Z,13.08
2023-04-30T18:36:57.748Z,13.05
2023-04-30T18:39:24.267Z,12.98
2023-04-30T18:41:51.164Z,12.97
2023-04-30T18:44:17.900Z,12.92
2023-04-30T18:46:44.446Z,12.82
2023-04-30T18:49:10.957Z,12.83
2023-04-30T18:51:37.918Z,12.74
2023-04-30T18:54:04.434Z,12.73
2023-04-30T18:56:30.929Z,12.67
2023-04-30T18:58:58.016Z,12.58
2023-04-30T19:01:27.294Z,12.49
2023-04-30T19:03:54.005Z,12.42
2023-04-30T19:06:20.892Z,12.28
2023-04-30T19:08:47.603Z,12.26
2023-04-30T19:11:14.031Z,12.14
2023-04-30T19:13:40.562Z,12.00
2023-04-30T19:16:06.981Z,11.92
2023-04-30T19:18:35.172Z,11.82
2023-04-30T19:21:02.383Z,11.75
2023-04-30T19:23:32.699Z,11.66
2023-04-30T19:25:59.360Z,11.64
2023-04-30T19:28:25.972Z,11.55
2023-04-30T19:30:56.594Z,11.45
2023-04-30T19:33:24.008Z,11.42
2023-04-30T19:35:51.307Z,11.31
2023-04-30T19:38:17.870Z,11.26
2023-04-30T19:40:52.069Z,11.18
2023-04-30T19:43:19.059Z,11.18
2023-04-30T19:45:51.848Z,11.11
2023-04-30T19:48:18.754Z,11.01
2023-04-30T19:50:45.525Z,10.98
2023-04-30T19:53:12.383Z,10.96
2023-04-30T19:55:38.818Z,10.74
2023-04-30T19:58:05.489Z,10.72
2023-04-30T20:00:32.304Z,10.68
2023-04-30T20:03:02.243Z,10.60
2023-04-30T20:05:28.716Z,10.41
2023-04-30T20:07:55.178Z,10.30
2023-04-30T20:10:21.764Z,10.22
2023-04-30T20:12:51.836Z,10.16
2023-04-30T20:15:22.716Z,10.08
2023-04-30T20:17:50.506Z,10.00
2023-04-30T20:20:17.364Z,9.94
2023-04-30T20:22:43.943Z,9.89
2023-04-30T20:25:10.368Z,9.89
2023-04-30T20:27:36.902Z,9.84
2023-04-30T20:30:04.728Z,9.82
2023-04-30T20:32:31.673Z,9.79
2023-04-30T20:35:01.107Z,9.60
2023-04-30T20:37:27.629Z,9.56
2023-04-30T20:39:54.127Z,9.48
2023-04-30T20:42:21.049Z,9.34
2023-04-30T20:44:48.013Z,9.22
2023-04-30T20:47:14.539Z,9.30
2023-04-30T20:49:41.383Z,9.24
2023-04-30T20:52:07.827Z,9.23
2023-04-30T20:54:34.194Z,9.10
2023-04-30T20:57:00.990Z,9.10
2023-04-30T20:59:27.482Z,9.13
2023-04-30T21:01:54.317Z,9.05
2023-04-30T21:04:20.783Z,8.94
2023-04-30T21:06:47.371Z,8.92
2023-04-30T21:09:14.027Z,8.82
2023-04-30T21:11:41.077Z,8.68
2023-04-30T21:14:08.951Z,8.62
2023-04-30T21:16:35.663Z,8.53
2023-04-30T21:19:03.217Z,8.48
2023-04-30T21:21:30.502Z,8.51
2023-04-30T21:23:57.179Z,8.48
2023-04-30T21:26:23.913Z,8.50
2023-04-30T21:28:52.502Z,8.45
2023-04-30T21:31:19.052Z,8.38
2023-04-30T21:33:48.446Z,8.37
2023-04-30T21:36:16.475Z,8.43
2023-04-30T21:38:43.186Z,8.40
2023-04-30T21:41:13.828Z,8.36
2023-04-30T21:43:41.648Z,8.32
2023-04-30T21:46:08.753Z,8.31
2023-04-30T21:48:35.726Z,8.31
2023-04-30T21:51:02.195Z,8.31
2023-04-30T21:53:28.744Z,8.24
2023-04-30T21:55:55.267Z,8.22
2023-04-30T21:58:21.693Z,8.27
2023-04-30T22:00:48.973Z,8.20
2023-04-30T22:03:16.100Z,8.25
2023-04-30T22:05:43.546Z,8.23
2023-04-30T22:08:09.985Z,8.21
2023-04-30T22:10:36.379Z,8.10
2023-04-30T22:13:02.927Z,8.02
2023-04-30T22:15:40.844Z,7.93
2023-04-30T22:18:13.676Z,8.07
2023-04-30T22:20:40.134Z,8.08
2023-04-30T22:23:06.743Z,8.14
2023-04-30T22:25:33.413Z,8.21
2023-04-30T22:27:59.959Z,8.20
2023-04-30T22:30:26.546Z,8.22
2023-04-30T22:32:56.946Z,8.19
2023-04-30T22:35:23.859Z,8.21
2023-04-30T22:37:50.541Z,8.17
2023-04-30T22:40:16.983Z,8.19
2023-04-30T22:42:43.589Z,8.12
2023-04-30T22:45:10.439Z,8.08
2023-04-30T22:47:37.250Z,8.04
2023-04-30T22:50:03.996Z,7.31
2023-04-30T22:52:32.713Z,7.87
2023-04-30T22:55:00.419Z,7.89
2023-04-30T22:57:27.196Z,7.78
2023-04-30T22:59:54.387Z,7.74
2023-04-30T23:02:21.149Z,7.70
2023-04-30T23:04:47.689Z,7.77
2023-04-30T23:07:14.610Z,7.78
2023-04-30T23:09:41.045Z,7.71
2023-04-30T23:12:07.880Z,7.70
2023-04-30T23:14:35.253Z,7.65
2023-04-30T23:17:01.969Z,7.67
2023-04-30T23:19:29.139Z,6.97
2023-04-30T23:21:55.674Z,7.57
2023-04-30T23:24:22.168Z,7.58
2023-04-30T23:26:48.738Z,7.58
2023-04-30T23:29:15.520Z,7.56
2023-04-30T23:31:42.034Z,7.55
2023-04-30T23:34:08.535Z,7.52
2023-04-30T23:36:35.032Z,7.47
2023-04-30T23:39:01.613Z,7.40
2023-04-30T23:41:28.270Z,7.28
2023-04-30T23:43:54.827Z,7.15
2023-04-30T23:46:22.763Z,7.12
2023-04-30T23:48:49.747Z,7.06
2023-04-30T23:51:16.293Z,7.26
2023-04-30T23:53:42.777Z,7.12
2023-04-30T23:56:09.298Z,7.07
2023-04-30T23:58:36.527Z,7.10
